首页
METAR-TAF:

METAR-TAF

机场 :

福州长乐国际机场

福州, 中华人民共和国

纬度: 26-05N, 经度: 119-17E, 海拔: 85米

当前天气观测

该预报发布于51分钟前的20:00 UTC
风速2节,风向
温度 27°C
湿度 89%
气压 1003 hPa
能见度10公里或以上
少量云层高于5000英尺

METAR: ZSFZ 192000Z 36001MPS 9999 FEW050 27/25 Q1003 NOSIG

时间: 04:51 (20:51 UTC)

预报

该预报发布于5小时和40分钟前的15:11 UTC
预报有效从19日的 18点(UTC)到 20日的 18点(UTC)
风速8节,风向南转南东
能見度: 6000
散云层高于1500英尺
短暂存在
从 20日的 04点(UTC)到 20日的 10点(UTC)
散云层高于1500英尺
少量云层高于2500英尺, 积雨云.

TAF: ZSFZ 191511Z 1918/2018 15004MPS 6000 SCT015 TX33/2006Z TN26/1921Z TEMPO 2004/2010 SCT015 FEW025CB

超过4000个机场的气象观测和天气预报(METAR&TAF报告)。

可查询的气象台以黄色和红色小点在地图上表示。

将鼠标移到小点上方,可查看气象台名称。

然后点击查看天气观测和预报。

如需切换地图:点击带黑十字的绿色按钮放大地图;点击带横线的绿色按钮缩小地图;或者点击绿色箭头查看邻近地区的地图。


METAR-TAF: